Impacts TAF Board
For situational awareness. Not to be used for flight planning purposes.
IDs:

KATL - Atlanta/Hartsfield-J, GA, US

Issued at 0532 UTC 24 Mar 2019
Updated at 0640 UTC 24 Mar 2019
Potential Impact None Slight Moderate High
Time0552Z 24/07Z 24/08Z 24/09Z 24/10Z 24/11Z 24/12Z 24/13Z 24/14Z 24/15Z 24/16Z 24/17Z 24/18Z 24/19Z>>
Type OBS PRVL PRVL PRVL PRVL PRVL PRVL PRVL PRVL PRVL PRVL PRVL PRVL PRVL
VIS 10 >6 >6 >6 >6 >6 >6 >6 >6 >6 >6 >6 >6 >6
CIG 250 250 250 250 250 250 250 250 -- -- -- -- 250 250
Cover BKN BKN BKN BKN BKN BKN BKN BKN SCT SCT SCT SCT BKN BKN
FltCat VFR VFR VFR VFR VFR VFR VFR VFR VFR VFR VFR VFR VFR VFR
WX -- -- -- -- -- -- -- -- -- -- -- -- -- --
WDir 90 40 40 40 40 40 40 40 160 160 160 160 190 190
WSpd 4 4 4 4 4 4 4 4 5 5 5 5 8 8
WGst -- -- -- -- -- -- -- -- -- -- -- -- 15 15
Raw TAF
KATL 240532Z 2406/2512 04004KT P6SM BKN250
  FM241400 16005KT P6SM SCT250
  FM241800 19008G15KT P6SM FEW050 BKN250
  FM250200 VRB03KT P6SM SCT200
  FM250500 20004KT P6SM BKN100


Raw METAR
KATL 240552Z 09004KT 10SM SCT200 BKN250 14/M04 A3025 RMK AO2 SLP241 T01391039 10189 20133 58003
KATL 240452Z 08003KT 10SM SCT200 BKN250 14/M04 A3026 RMK AO2 SLP244 T01441044 402280061
KATL 240352Z 03005KT 10SM BKN200 BKN250 15/M05 A3026 RMK AO2 SLP244 T01501050

METAR Board
Radar Display
Forecast Discussion
For situational awareness. Not to be used for flight planning purposes.